LFRU

Morlaix/Ploujean

Airport
ICAO code
LFRU
Summary
ICAO Region
EUR
ICAO Territory
Location

Ploujean, Bretagne,

Coordinates
48° 36' 12" N , 3° 48' 57" W
KCC
Metar
Observation
LFRU 021430Z AUTO 07004KT 9999 BKN026 OVC033 06/04 Q1021
Station
Morlaix / Ploujean
Date/Time
2022-12-02 14:30:00
Wind direction
70°
Wind speed
04 kts
Lowest cloud amount
broken clouds
Temperature
6°C
Dew point
4°C
Humidity
86%
QNH
1021 hPa
Weather condition
n/a

Description

Morlaix - Ploujean Airport is an airport located 2 km northeast of Morlaix, a commune of the Finistère department in the Brittany region of France. The airport is located in the former commune of Ploujean.

Climatology

Temperate Marine climate/Oceanic climate (Köppen climate classification Cfb). Moderately cool summer and comparatively warm winter with a temperature range of only 14°C. Prevailing south-westerly winds from the Atlantic Ocean.

Runways

Designator Length Width Surface Rops
16/34 0 0 UNK No/No
5/23 1617 36 ASP No/No

Airport map

Aerial View

SKYbrary Partners:

Safety knowledge contributed by: